Time;durP1;ratioP1;P1;durP2;ratioP2;P2;SDS_P1;SDS_P2;PMS_P1;PMS_P2;Temp;Humidity;BMP_temperature;BMP_pressure;BME280_temperature;BME280_humidity;BME280_pressure;Samples;Min_cycle;Max_cycle;Signal;HPM_P1;HPM_P2
2023/08/22 00:00:30;;;;;;;13.32;10.95;;;;;;;27.61;79.28;98776.88;4985183;28;20556;-62
2023/08/22 00:02:56;;;;;;;13.10;10.77;;;;;;;27.70;79.84;98806.59;4985567;28;20045;-63
2023/08/22 00:05:22;;;;;;;12.43;10.50;;;;;;;27.69;80.54;98807.69;4984738;28;20038;-62
2023/08/22 00:07:51;;;;;;;13.02;11.63;;;;;;;27.57;80.70;98801.69;4989049;28;20053;-64
2023/08/22 00:10:16;;;;;;;11.73;10.50;;;;;;;27.73;79.78;98802.66;4981369;28;20052;-62
2023/08/22 00:12:43;;;;;;;14.57;10.88;;;;;;;27.73;79.87;98803.44;4985056;28;21084;-63
2023/08/22 00:15:12;;;;;;;12.48;10.80;;;;;;;27.77;79.06;98801.06;4985948;28;20034;-63
2023/08/22 00:17:37;;;;;;;12.05;10.85;;;;;;;27.72;79.11;98801.81;4983543;28;20037;-64
2023/08/22 00:20:08;;;;;;;14.50;11.05;;;;;;;27.68;79.22;98790.03;4972928;28;20025;-64
2023/08/22 00:22:34;;;;;;;12.95;11.20;;;;;;;27.62;79.79;98780.38;4983126;28;20034;-63
2023/08/22 00:25:03;;;;;;;13.40;10.88;;;;;;;27.64;79.96;98790.78;4981714;28;20037;-63
2023/08/22 00:27:31;;;;;;;15.75;10.43;;;;;;;27.57;80.30;98789.13;4968187;28;20128;-63
2023/08/22 00:30:01;;;;;;;14.07;11.13;;;;;;;27.54;80.67;98791.50;4990121;28;20275;-62
2023/08/22 00:32:27;;;;;;;13.75;10.88;;;;;;;27.55;80.71;98795.78;4970933;28;20113;-63
2023/08/22 00:34:52;;;;;;;13.00;11.05;;;;;;;27.48;81.82;98784.50;4974354;28;20548;-64
2023/08/22 00:37:19;;;;;;;12.85;11.25;;;;;;;27.51;81.75;98790.13;4988128;28;20037;-61
2023/08/22 00:39:44;;;;;;;15.52;11.52;;;;;;;27.51;81.65;98794.66;4984985;28;20145;-63
2023/08/22 00:42:10;;;;;;;15.15;11.05;;;;;;;27.65;81.26;98787.84;4972789;28;20115;-62
2023/08/22 00:44:35;;;;;;;12.45;11.15;;;;;;;27.41;81.28;98779.34;4987540;28;20152;-62
2023/08/22 00:47:07;;;;;;;12.30;10.88;;;;;;;27.57;80.77;98794.47;4974825;28;20034;-62
2023/08/22 00:49:33;;;;;;;14.40;10.88;;;;;;;27.38;81.15;98793.19;4986493;28;20415;-64
2023/08/22 00:51:59;;;;;;;15.57;11.27;;;;;;;27.52;81.07;98793.59;4987469;28;20018;-63
2023/08/22 00:54:30;;;;;;;12.80;11.30;;;;;;;27.56;80.73;98784.03;4975408;28;20467;-63
2023/08/22 00:56:56;;;;;;;11.90;10.68;;;;;;;27.60;80.27;98785.97;4973877;28;20674;-64
2023/08/22 00:59:26;;;;;;;14.18;11.00;;;;;;;27.51;80.17;98784.81;4989719;28;20576;-64
2023/08/22 01:01:51;;;;;;;13.43;11.25;;;;;;;27.45;80.32;98788.44;4971831;28;20690;-64
2023/08/22 01:04:17;;;;;;;13.50;10.82;;;;;;;27.35;80.65;98780.34;4985890;28;20037;-62
2023/08/22 01:06:44;;;;;;;14.48;10.82;;;;;;;27.23;80.60;98759.09;4974388;28;20034;-63
2023/08/22 01:09:23;;;;;;;13.40;10.77;;;;;;;27.45;79.97;98776.97;4984469;28;20052;-64
2023/08/22 01:11:54;;;;;;;13.15;10.70;;;;;;;27.59;79.19;98780.88;4988201;28;20052;-62
2023/08/22 01:14:20;;;;;;;11.65;10.45;;;;;;;27.50;79.46;98772.50;4984398;28;20039;-62
2023/08/22 01:16:47;;;;;;;12.63;10.60;;;;;;;27.38;79.37;98748.63;4989075;28;20038;-62
2023/08/22 01:19:13;;;;;;;12.32;10.80;;;;;;;27.42;79.84;98772.94;4973817;28;20026;-63
2023/08/22 01:21:51;;;;;;;11.75;10.30;;;;;;;27.45;79.56;98764.41;4970455;28;20397;-63
2023/08/22 01:24:17;;;;;;;12.65;10.27;;;;;;;27.26;79.06;98752.47;4991691;28;20033;-63
2023/08/22 01:26:43;;;;;;;12.77;10.45;;;;;;;27.06;80.50;98761.03;4972470;28;20034;-63
2023/08/22 01:29:10;;;;;;;11.27;10.15;;;;;;;27.38;79.48;98775.31;4972821;28;20885;-62
2023/08/22 01:31:56;;;;;;;13.02;10.50;;;;;;;27.21;80.21;98777.22;4987812;28;20156;-62
2023/08/22 01:34:43;;;;;;;12.55;11.02;;;;;;;27.28;79.62;98785.06;4986100;28;20444;-63
2023/08/22 01:37:09;;;;;;;13.43;11.25;;;;;;;27.31;79.54;98755.19;4987632;28;20038;-63
2023/08/22 01:39:35;;;;;;;11.57;10.38;;;;;;;27.39;79.65;98768.91;4974458;28;20181;-62
2023/08/22 01:42:03;;;;;;;13.60;11.23;;;;;;;27.32;80.37;98765.63;4969405;28;20824;-63
2023/08/22 01:44:29;;;;;;;12.70;10.40;;;;;;;27.42;79.95;98771.09;4971315;28;21451;-64
2023/08/22 01:46:55;;;;;;;13.63;11.25;;;;;;;27.35;80.03;98765.13;4987751;28;20029;-64
2023/08/22 01:49:23;;;;;;;12.10;10.32;;;;;;;27.18;80.56;98761.69;4990018;28;20068;-62
2023/08/22 01:51:48;;;;;;;14.65;10.40;;;;;;;27.23;80.06;98769.75;4987197;28;20129;-63
2023/08/22 01:54:14;;;;;;;13.05;10.50;;;;;;;27.24;80.19;98769.53;4985045;28;20034;-64
2023/08/22 01:56:40;;;;;;;11.77;10.57;;;;;;;27.23;80.66;98767.09;4973421;28;20042;-62
2023/08/22 01:59:05;;;;;;;13.10;11.13;;;;;;;27.16;80.87;98769.16;4984967;28;20113;-64
2023/08/22 02:01:30;;;;;;;11.80;10.50;;;;;;;26.89;81.35;98743.22;4984626;28;20057;-63
2023/08/22 02:04:01;;;;;;;12.27;10.35;;;;;;;26.93;80.79;98732.88;4970179;28;21211;-64
2023/08/22 02:06:30;;;;;;;15.85;10.85;;;;;;;27.10;80.57;98765.63;4972157;28;20052;-64
2023/08/22 02:08:57;;;;;;;14.17;10.50;;;;;;;27.00;81.24;98768.97;4988514;28;20029;-62
2023/08/22 02:11:23;;;;;;;11.90;10.70;;;;;;;27.19;80.31;98760.66;4984564;28;20055;-63
2023/08/22 02:13:50;;;;;;;11.73;10.52;;;;;;;27.11;80.67;98761.09;4983892;28;20037;-62
2023/08/22 02:16:18;;;;;;;13.68;10.95;;;;;;;27.10;80.60;98768.28;4990411;28;21217;-64
2023/08/22 02:18:43;;;;;;;12.30;10.73;;;;;;;27.09;80.63;98760.53;4970240;28;20034;-64
2023/08/22 02:21:09;;;;;;;13.52;10.90;;;;;;;27.10;80.43;98762.94;4989747;28;20422;-65
2023/08/22 02:23:36;;;;;;;12.48;10.93;;;;;;;27.05;80.93;98752.22;4987154;28;20030;-64
2023/08/22 02:26:02;;;;;;;12.85;10.52;;;;;;;27.09;81.08;98750.69;4983347;28;20026;-62
2023/08/22 02:28:29;;;;;;;15.18;11.02;;;;;;;27.05;80.94;98736.19;4989784;28;20116;-63
2023/08/22 02:30:56;;;;;;;15.50;10.65;;;;;;;27.00;81.61;98747.63;4988636;28;20057;-63
2023/08/22 02:33:22;;;;;;;15.18;11.40;;;;;;;26.88;82.73;98749.59;4969832;28;20113;-63
2023/08/22 02:35:47;;;;;;;11.82;10.70;;;;;;;26.99;82.86;98750.53;4976807;28;20088;-63
2023/08/22 02:38:15;;;;;;;15.50;11.23;;;;;;;27.04;82.85;98748.75;4974818;28;20851;-63
2023/08/22 02:40:40;;;;;;;12.43;10.93;;;;;;;27.09;82.34;98745.34;4979030;28;20038;-62
2023/08/22 02:43:08;;;;;;;14.02;10.90;;;;;;;26.97;82.44;98748.13;4984783;28;20596;-64
2023/08/22 02:45:34;;;;;;;13.60;11.18;;;;;;;26.94;82.52;98753.16;4995071;28;20041;-64
2023/08/22 02:48:00;;;;;;;13.00;10.40;;;;;;;26.94;82.07;98748.63;4989633;28;20045;-63
2023/08/22 02:50:25;;;;;;;12.82;10.48;;;;;;;27.03;81.16;98748.97;4981842;28;20042;-62
2023/08/22 02:52:53;;;;;;;12.75;10.60;;;;;;;26.90;82.08;98750.16;4988067;28;20034;-63
2023/08/22 02:55:19;;;;;;;13.10;10.55;;;;;;;26.75;82.54;98755.31;4975817;28;20045;-62
2023/08/22 02:57:46;;;;;;;11.63;10.30;;;;;;;26.92;82.12;98757.94;4975156;28;20542;-63
2023/08/22 03:00:13;;;;;;;18.02;10.82;;;;;;;26.87;82.09;98742.69;4974690;28;20606;-62
2023/08/22 03:02:39;;;;;;;11.45;10.25;;;;;;;26.78;82.29;98752.16;4987309;28;20320;-62
2023/08/22 03:05:09;;;;;;;11.50;10.30;;;;;;;26.83;81.00;98746.88;4977899;28;20424;-63
2023/08/22 03:07:35;;;;;;;16.35;10.52;;;;;;;26.90;80.34;98744.81;4967478;28;20080;-64
2023/08/22 03:10:00;;;;;;;11.88;10.68;;;;;;;26.84;80.47;98743.16;4985760;28;20067;-63
2023/08/22 03:12:28;;;;;;;11.20;10.00;;;;;;;26.84;81.15;98753.84;4988249;28;20044;-62
2023/08/22 03:14:56;;;;;;;13.07;10.32;;;;;;;26.82;81.38;98753.28;4987010;28;20124;-62
2023/08/22 03:17:24;;;;;;;11.57;9.95;;;;;;;26.74;81.37;98737.69;4982051;28;20122;-63
2023/08/22 03:19:49;;;;;;;12.05;10.38;;;;;;;26.76;80.97;98746.25;4986392;28;20034;-62
2023/08/22 03:22:16;;;;;;;12.43;10.93;;;;;;;26.78;81.35;98746.84;4983737;28;20123;-63
2023/08/22 03:24:42;;;;;;;12.23;10.52;;;;;;;26.79;81.19;98746.56;4967216;28;20656;-62
2023/08/22 03:27:09;;;;;;;13.73;10.73;;;;;;;26.83;80.71;98745.03;4986801;28;20045;-62
2023/08/22 03:29:37;;;;;;;13.70;10.77;;;;;;;26.73;80.62;98739.56;4987706;28;20026;-62
2023/08/22 03:32:03;;;;;;;11.93;9.80;;;;;;;26.60;81.29;98747.91;4984545;28;20039;-62
2023/08/22 03:34:28;;;;;;;14.05;10.50;;;;;;;26.72;80.78;98753.13;4985421;28;20511;-63
2023/08/22 03:36:53;;;;;;;13.57;10.40;;;;;;;26.65;80.84;98756.81;4965319;28;20042;-62
2023/08/22 03:39:19;;;;;;;13.13;10.15;;;;;;;26.57;80.46;98738.50;4985280;28;20034;-64
2023/08/22 03:41:44;;;;;;;13.20;10.60;;;;;;;26.60;81.14;98754.06;4968881;28;20042;-62
2023/08/22 03:44:10;;;;;;;11.55;10.23;;;;;;;26.50;81.36;98727.22;4984429;28;20076;-64
2023/08/22 03:46:35;;;;;;;14.40;10.93;;;;;;;26.61;81.37;98754.84;4987935;28;20039;-61
2023/08/22 03:49:00;;;;;;;12.65;10.52;;;;;;;26.58;82.16;98755.34;4998783;28;20641;-62
2023/08/22 03:51:30;;;;;;;12.48;10.10;;;;;;;26.52;82.63;98759.75;4989547;28;20797;-64
2023/08/22 03:53:55;;;;;;;11.98;10.48;;;;;;;26.53;82.61;98756.06;4983101;28;20040;-63
2023/08/22 03:56:21;;;;;;;14.73;10.30;;;;;;;26.59;81.85;98749.72;4983222;28;20393;-63
2023/08/22 03:58:46;;;;;;;14.32;10.63;;;;;;;26.45;81.30;98741.28;4986748;28;21672;-63
2023/08/22 04:01:14;;;;;;;12.32;9.85;;;;;;;26.55;80.98;98756.63;4967856;28;20092;-63
2023/08/22 04:03:42;;;;;;;13.45;10.35;;;;;;;26.61;80.90;98760.19;4987758;28;20041;-64
2023/08/22 04:06:07;;;;;;;11.65;10.23;;;;;;;26.51;81.49;98766.16;4975585;28;20037;-63
2023/08/22 04:08:32;;;;;;;13.10;9.98;;;;;;;26.45;81.78;98761.81;4971915;28;20869;-63
2023/08/22 04:10:58;;;;;;;11.65;10.30;;;;;;;26.51;81.30;98760.84;4976988;28;20473;-63
2023/08/22 04:13:23;;;;;;;11.25;10.02;;;;;;;26.46;81.47;98761.56;4975848;28;20025;-63
2023/08/22 04:15:50;;;;;;;12.05;10.45;;;;;;;26.48;81.84;98766.66;4989650;28;21124;-63
2023/08/22 04:18:18;;;;;;;14.50;10.90;;;;;;;26.39;81.80;98757.44;4981738;28;20038;-62
2023/08/22 04:20:45;;;;;;;12.27;10.77;;;;;;;26.33;82.07;98753.09;4984686;28;20044;-63
2023/08/22 04:23:11;;;;;;;13.20;10.25;;;;;;;26.43;82.19;98763.91;4987695;28;20044;-64
2023/08/22 04:25:36;;;;;;;14.25;10.73;;;;;;;26.44;82.06;98765.53;4983856;28;20038;-64
2023/08/22 04:28:05;;;;;;;12.20;10.60;;;;;;;26.42;81.52;98744.44;4987354;28;20969;-63
2023/08/22 04:30:33;;;;;;;13.60;9.65;;;;;;;26.48;81.06;98766.66;4971523;28;20364;-62
2023/08/22 04:32:59;;;;;;;12.02;10.57;;;;;;;26.62;80.49;98770.63;4988814;28;20057;-62
2023/08/22 04:35:26;;;;;;;14.68;9.88;;;;;;;26.44;80.90;98771.66;4987266;28;20144;-62
2023/08/22 04:37:52;;;;;;;11.60;10.20;;;;;;;26.47;80.62;98768.50;4986812;28;20038;-63
2023/08/22 04:40:17;;;;;;;12.05;10.32;;;;;;;26.41;80.86;98764.16;4975070;28;20087;-62
2023/08/22 04:42:43;;;;;;;12.93;10.75;;;;;;;26.41;79.98;98734.84;4986759;28;20041;-63
2023/08/22 04:45:08;;;;;;;13.35;10.43;;;;;;;26.51;80.79;98774.16;4988388;28;20730;-64
2023/08/22 04:47:34;;;;;;;15.77;10.32;;;;;;;26.54;80.61;98771.00;4993954;28;20034;-63
2023/08/22 04:49:59;;;;;;;12.13;9.80;;;;;;;26.54;80.57;98768.34;4987017;28;20499;-66
2023/08/22 04:52:25;;;;;;;12.25;10.48;;;;;;;26.41;81.20;98774.00;4990436;28;20473;-64
2023/08/22 04:54:50;;;;;;;11.00;9.75;;;;;;;26.38;81.32;98779.84;4987176;28;20503;-62
2023/08/22 04:57:23;;;;;;;11.95;10.60;;;;;;;26.42;81.54;98779.09;4988138;28;20038;-62
2023/08/22 04:59:49;;;;;;;15.73;10.80;;;;;;;26.33;81.63;98771.75;4988800;28;20026;-63
2023/08/22 05:02:17;;;;;;;11.60;9.98;;;;;;;26.45;81.88;98773.28;4978909;28;20045;-62
2023/08/22 05:04:42;;;;;;;14.02;10.32;;;;;;;26.43;81.97;98786.06;4976083;28;20700;-62
2023/08/22 05:07:10;;;;;;;14.15;10.40;;;;;;;26.41;81.69;98782.81;4999254;28;20054;-63
2023/08/22 05:09:35;;;;;;;13.05;10.43;;;;;;;26.47;80.41;98773.03;4994328;28;20033;-63
2023/08/22 05:12:03;;;;;;;12.90;9.98;;;;;;;26.42;80.56;98771.09;4990229;28;20045;-63
2023/08/22 05:14:33;;;;;;;11.32;9.85;;;;;;;26.43;81.24;98774.56;4983433;28;20029;-63
2023/08/22 05:17:00;;;;;;;14.63;10.40;;;;;;;26.38;82.02;98777.19;4996567;28;20044;-63
2023/08/22 05:19:28;;;;;;;11.93;10.35;;;;;;;26.30;82.60;98769.56;4995580;28;20036;-64
2023/08/22 05:21:54;;;;;;;12.93;10.65;;;;;;;26.12;83.84;98768.78;4980844;28;20048;-64
2023/08/22 05:24:19;;;;;;;15.52;10.90;;;;;;;26.12;83.49;98765.28;4995826;28;20026;-63
2023/08/22 05:26:44;;;;;;;13.18;10.52;;;;;;;26.16;83.10;98777.06;4991283;28;20559;-66
2023/08/22 05:29:10;;;;;;;11.43;10.10;;;;;;;26.10;83.82;98770.88;4990064;28;20030;-64
2023/08/22 05:31:35;;;;;;;15.10;10.32;;;;;;;26.17;83.83;98786.69;4997540;28;20398;-64
2023/08/22 05:34:03;;;;;;;14.68;11.00;;;;;;;26.31;83.27;98776.53;4997475;28;20039;-62
2023/08/22 05:36:30;;;;;;;15.43;10.93;;;;;;;26.40;83.05;98775.88;4991735;28;20025;-63
2023/08/22 05:38:56;;;;;;;14.32;10.48;;;;;;;26.39;82.64;98771.56;4997557;28;20084;-64
2023/08/22 05:41:21;;;;;;;13.85;11.30;;;;;;;26.21;83.32;98771.84;4978889;28;20723;-61
2023/08/22 05:43:46;;;;;;;14.93;11.25;;;;;;;26.22;83.75;98778.78;4980089;28;20120;-61
2023/08/22 05:46:12;;;;;;;12.50;10.75;;;;;;;26.26;83.51;98780.72;4997884;28;20064;-62
2023/08/22 05:48:40;;;;;;;13.82;10.88;;;;;;;26.23;83.73;98786.53;4974152;28;20188;-63
2023/08/22 05:51:07;;;;;;;12.30;11.00;;;;;;;26.27;83.75;98785.00;4997304;28;20041;-62
2023/08/22 05:53:35;;;;;;;21.05;11.45;;;;;;;26.33;83.55;98787.75;4989532;28;20069;-63
2023/08/22 05:56:00;;;;;;;15.13;10.95;;;;;;;26.29;83.25;98784.75;4994473;28;20384;-63
2023/08/22 05:58:26;;;;;;;14.82;10.65;;;;;;;26.33;82.82;98790.41;4994544;28;20034;-62
2023/08/22 06:00:51;;;;;;;11.88;10.50;;;;;;;26.26;83.98;98794.03;4998605;28;20021;-62
2023/08/22 06:03:18;;;;;;;17.52;10.95;;;;;;;26.28;83.53;98789.28;4990697;28;20764;-63
2023/08/22 06:05:46;;;;;;;18.80;10.80;;;;;;;26.16;83.95;98787.72;4975729;28;20053;-62
2023/08/22 06:08:11;;;;;;;14.60;11.15;;;;;;;26.15;83.66;98788.81;4992607;28;20034;-63
2023/08/22 06:10:37;;;;;;;22.15;10.95;;;;;;;26.07;83.79;98788.16;4976943;28;20048;-63
2023/08/22 06:13:06;;;;;;;21.40;10.80;;;;;;;26.06;84.27;98794.50;4976533;28;20037;-64
2023/08/22 06:15:31;;;;;;;21.97;11.80;;;;;;;26.11;83.00;98763.69;4972058;28;20068;-61
2023/08/22 06:17:57;;;;;;;13.20;10.45;;;;;;;26.15;83.96;98789.59;4975420;28;20325;-62
2023/08/22 06:20:24;;;;;;;13.98;10.90;;;;;;;26.25;83.64;98786.31;4962508;28;20118;-63
2023/08/22 06:22:50;;;;;;;12.65;10.57;;;;;;;26.14;83.72;98790.66;4980159;28;20034;-61
2023/08/22 06:25:15;;;;;;;14.30;11.05;;;;;;;26.15;83.68;98788.81;4982186;28;20924;-64
2023/08/22 06:27:43;;;;;;;16.13;10.95;;;;;;;26.21;83.02;98788.66;4979127;28;20053;-62
2023/08/22 06:30:11;;;;;;;24.52;11.82;;;;;;;26.22;83.01;98778.78;4986198;28;20038;-61
2023/08/22 06:32:37;;;;;;;13.82;11.05;;;;;;;26.28;82.55;98785.81;4981838;28;20187;-63
2023/08/22 06:35:07;;;;;;;51.83;14.23;;;;;;;26.32;81.96;98791.47;4987298;28;20046;-62
2023/08/22 06:37:33;;;;;;;15.90;11.70;;;;;;;26.32;81.65;98786.94;4960735;28;20072;-62
2023/08/22 06:40:04;;;;;;;20.38;11.85;;;;;;;26.39;81.54;98794.75;4970211;28;20030;-62
2023/08/22 06:42:29;;;;;;;16.88;10.50;;;;;;;26.39;80.73;98792.91;4984895;28;20022;-63
2023/08/22 06:44:57;;;;;;;15.32;11.15;;;;;;;26.44;80.04;98792.19;4969469;28;20037;-62
2023/08/22 06:47:23;;;;;;;15.32;10.73;;;;;;;26.41;80.87;98798.00;4987752;28;20848;-62
2023/08/22 06:49:51;;;;;;;13.48;10.00;;;;;;;26.42;80.99;98800.41;4985094;28;20068;-61
2023/08/22 06:52:19;;;;;;;11.90;10.20;;;;;;;26.32;81.36;98794.13;4985896;28;20033;-63
2023/08/22 06:54:45;;;;;;;13.52;10.43;;;;;;;26.52;81.55;98791.75;4986764;28;20352;-61
2023/08/22 06:57:10;;;;;;;14.00;11.07;;;;;;;26.61;81.03;98794.84;4961409;28;20031;-62
2023/08/22 06:59:35;;;;;;;13.13;10.68;;;;;;;26.55;81.56;98783.28;4962209;28;20046;-62
2023/08/22 07:02:01;;;;;;;12.82;10.35;;;;;;;26.60;81.39;98786.06;4966891;28;20022;-62
2023/08/22 07:04:29;;;;;;;11.98;10.32;;;;;;;26.69;81.46;98790.94;4987523;28;20404;-62
2023/08/22 07:06:57;;;;;;;12.93;10.73;;;;;;;26.50;80.59;98764.53;4966120;28;20213;-60
2023/08/22 07:09:23;;;;;;;13.63;10.48;;;;;;;26.72;80.68;98798.47;4965008;28;20143;-64
2023/08/22 07:11:50;;;;;;;16.42;11.48;;;;;;;26.61;80.36;98768.19;4957549;28;21001;-62
2023/08/22 07:14:16;;;;;;;15.32;11.15;;;;;;;26.59;81.55;98796.94;4963944;28;20485;-63
2023/08/22 07:16:41;;;;;;;12.32;10.27;;;;;;;26.79;80.44;98799.09;4962286;28;20046;-64
2023/08/22 07:19:06;;;;;;;12.15;10.27;;;;;;;26.83;79.12;98790.38;4968904;28;20800;-59
2023/08/22 07:21:32;;;;;;;11.82;10.00;;;;;;;26.73;76.16;98794.75;4988324;28;20026;-62
2023/08/22 07:23:57;;;;;;;15.15;10.02;;;;;;;26.82;75.89;98793.28;4985556;28;20138;-61
2023/08/22 07:26:25;;;;;;;12.75;9.57;;;;;;;26.82;74.74;98794.09;4982586;28;20477;-62
2023/08/22 07:28:53;;;;;;;14.40;10.00;;;;;;;26.78;74.64;98798.31;4962203;28;20038;-61
2023/08/22 07:31:18;;;;;;;12.93;9.40;;;;;;;26.88;74.67;98797.63;4983591;28;20052;-62
2023/08/22 07:33:44;;;;;;;11.68;9.82;;;;;;;26.98;73.88;98786.28;4981787;28;20737;-63
2023/08/22 07:36:18;;;;;;;11.77;10.20;;;;;;;27.15;73.80;98804.91;4963247;28;20085;-64
2023/08/22 07:38:44;;;;;;;12.27;9.70;;;;;;;27.09;73.74;98797.88;4970004;28;20120;-63
2023/08/22 07:41:12;;;;;;;14.18;10.20;;;;;;;27.21;74.33;98798.56;4985471;28;20060;-63
2023/08/22 07:43:40;;;;;;;14.75;10.18;;;;;;;27.21;73.01;98802.03;4966695;28;20125;-65
2023/08/22 07:46:07;;;;;;;13.27;10.07;;;;;;;27.26;73.21;98798.66;4968636;28;20121;-62
2023/08/22 07:48:33;;;;;;;14.85;10.50;;;;;;;27.29;73.88;98798.19;4975354;28;21033;-63
2023/08/22 07:51:01;;;;;;;11.80;10.15;;;;;;;27.14;74.46;98803.28;4966380;28;20034;-62
2023/08/22 07:53:27;;;;;;;11.40;9.73;;;;;;;27.14;74.24;98800.63;4967044;28;20467;-62
2023/08/22 07:55:52;;;;;;;15.10;10.10;;;;;;;26.98;75.37;98796.94;4990307;28;20155;-62
2023/08/22 07:58:18;;;;;;;29.63;11.55;;;;;;;27.07;74.93;98797.31;4965415;28;20153;-62
2023/08/22 08:00:47;;;;;;;31.60;12.60;;;;;;;27.21;74.22;98802.03;4967986;28;20030;-63
2023/08/22 08:03:13;;;;;;;51.80;14.13;;;;;;;27.39;74.39;98798.28;4965299;28;20040;-61
2023/08/22 08:05:40;;;;;;;41.53;12.98;;;;;;;27.53;74.26;98797.91;4986325;28;20041;-62
2023/08/22 08:08:08;;;;;;;51.47;13.18;;;;;;;27.54;75.67;98792.28;4964476;28;20054;-62
2023/08/22 08:10:36;;;;;;;34.53;12.55;;;;;;;27.64;75.91;98798.78;4989791;28;20025;-63
2023/08/22 08:13:04;;;;;;;13.02;10.40;;;;;;;27.46;73.84;98792.75;4983865;28;20030;-63
2023/08/22 08:15:30;;;;;;;12.88;10.25;;;;;;;27.54;73.32;98810.97;4981669;28;20030;-63
2023/08/22 08:17:59;;;;;;;14.25;10.20;;;;;;;27.64;73.06;98804.13;4985481;28;20382;-62
2023/08/22 08:20:25;;;;;;;13.45;10.60;;;;;;;27.74;73.50;98799.69;4963443;28;20043;-62
2023/08/22 08:22:53;;;;;;;13.40;10.73;;;;;;;27.67;74.03;98776.94;4990158;28;20058;-63
2023/08/22 08:25:21;;;;;;;12.15;10.48;;;;;;;28.07;73.08;98797.88;4986799;28;20113;-63
2023/08/22 08:27:46;;;;;;;12.48;9.98;;;;;;;29.37;68.56;98790.41;4983809;28;20511;-62
2023/08/22 08:30:12;;;;;;;12.40;9.93;;;;;;;30.33;62.82;98792.63;4970598;28;20049;-61
2023/08/22 08:32:37;;;;;;;14.30;10.48;;;;;;;31.22;59.33;98790.28;4964825;28;20569;-64
2023/08/22 08:35:11;;;;;;;12.93;9.85;;;;;;;31.84;57.34;98790.75;4988754;28;20080;-62
2023/08/22 08:37:36;;;;;;;10.07;9.02;;;;;;;32.48;55.57;98788.06;4972382;28;20233;-63
2023/08/22 08:40:06;;;;;;;12.50;9.30;;;;;;;33.21;53.02;98780.81;4968474;28;20053;-62
2023/08/22 08:42:36;;;;;;;12.70;9.68;;;;;;;33.57;51.11;98777.59;4988003;28;20353;-63
2023/08/22 08:45:03;;;;;;;12.00;9.27;;;;;;;33.94;50.15;98782.19;4990231;28;20097;-63
2023/08/22 08:47:30;;;;;;;11.10;8.93;;;;;;;34.21;48.79;98772.59;4963872;28;20772;-63
2023/08/22 08:49:59;;;;;;;10.70;9.25;;;;;;;34.85;48.02;98781.69;4988446;28;20034;-61
2023/08/22 08:52:25;;;;;;;11.95;9.35;;;;;;;35.32;46.16;98769.91;4989321;28;20497;-62
2023/08/22 08:54:51;;;;;;;11.65;9.13;;;;;;;35.22;44.14;98773.66;4983082;28;20037;-62
2023/08/22 08:57:19;;;;;;;10.45;8.77;;;;;;;34.66;45.82;98773.66;4973101;28;20431;-61
2023/08/22 08:59:44;;;;;;;14.25;8.75;;;;;;;34.88;45.77;98766.75;4966608;28;20062;-62
2023/08/22 09:02:14;;;;;;;10.85;8.52;;;;;;;34.64;46.81;98754.22;4990074;28;20168;-62
2023/08/22 09:04:42;;;;;;;11.57;8.93;;;;;;;34.32;47.28;98762.41;4986834;28;20033;-63
2023/08/22 09:07:10;;;;;;;9.27;8.18;;;;;;;33.70;48.14;98774.22;4973645;28;20096;-63
2023/08/22 09:09:36;;;;;;;13.13;9.47;;;;;;;32.64;51.07;98778.78;4983455;28;20037;-64
2023/08/22 09:12:10;;;;;;;12.05;9.25;;;;;;;32.04;53.27;98770.19;4979736;28;20026;-60
2023/08/22 09:14:48;;;;;;;12.75;8.93;;;;;;;31.40;54.90;98768.16;4989479;28;20120;-62
2023/08/22 09:17:17;;;;;;;10.38;8.88;;;;;;;31.14;56.24;98770.19;4981926;28;20089;-64
2023/08/22 09:19:46;;;;;;;11.20;9.00;;;;;;;30.97;55.39;98750.94;4990071;28;20057;-63
2023/08/22 09:22:14;;;;;;;;;;;;;;;31.02;56.08;98767.03;4967739;28;20041;-63
2023/08/22 09:24:52;;;;;;;12.60;9.02;;;;;;;30.97;56.71;98770.53;4990218;28;19984;-62
2023/08/22 09:27:22;;;;;;;11.45;9.20;;;;;;;30.95;56.68;98763.84;4965334;28;20100;-63
2023/08/22 09:29:50;;;;;;;11.68;9.27;;;;;;;31.01;57.98;98765.41;4981114;28;20066;-64
2023/08/22 09:32:16;;;;;;;12.90;9.07;;;;;;;30.95;58.70;98761.94;4973348;28;20026;-61
2023/08/22 09:34:53;;;;;;;11.95;9.35;;;;;;;30.68;58.15;98730.06;4969675;28;20557;-61
2023/08/22 09:37:40;;;;;;;15.38;9.88;;;;;;;30.92;57.53;98754.44;4983376;28;20834;-60
2023/08/22 09:40:09;;;;;;;10.70;9.60;;;;;;;30.58;57.09;98730.91;4983289;28;20766;-64
2023/08/22 09:42:37;;;;;;;;;;;;;;;30.74;57.59;98761.19;4988406;28;20046;-62
2023/08/22 09:45:07;;;;;;;10.95;9.30;;;;;;;30.93;57.71;98752.56;4973702;28;19928;-61
2023/08/22 09:47:38;;;;;;;11.45;9.30;;;;;;;31.03;57.08;98749.81;4966083;28;20033;-60
2023/08/22 09:50:07;;;;;;;12.52;9.75;;;;;;;31.01;56.99;98734.00;4981521;28;20603;-63
2023/08/22 09:52:33;;;;;;;;;;;;;;;31.05;57.16;98745.00;5002877;28;20025;-63
2023/08/22 09:55:01;;;;;;;10.30;9.05;;;;;;;31.02;57.86;98734.81;4971189;28;19924;-63
2023/08/22 09:57:27;;;;;;;13.75;8.98;;;;;;;30.80;56.57;98711.78;4985159;28;20049;-62
2023/08/22 09:59:53;;;;;;;10.95;9.02;;;;;;;31.06;56.91;98725.09;4994957;28;20086;-63
2023/08/22 10:02:19;;;;;;;11.43;9.32;;;;;;;31.19;56.61;98735.22;4999064;28;20900;-61
2023/08/22 10:04:46;;;;;;;12.30;9.00;;;;;;;31.33;54.71;98723.91;4975717;28;20723;-62
2023/08/22 10:07:11;;;;;;;12.45;9.63;;;;;;;31.36;54.54;98717.94;4980392;28;20650;-62
2023/08/22 10:09:43;;;;;;;10.35;9.15;;;;;;;31.45;54.68;98724.31;4977346;28;20034;-61
2023/08/22 10:12:11;;;;;;;14.23;9.10;;;;;;;31.56;55.84;98722.41;4974259;28;20154;-64
2023/08/22 10:14:51;;;;;;;11.93;8.90;;;;;;;31.65;55.38;98715.34;4992820;28;20688;-66
2023/08/22 10:17:19;;;;;;;11.23;8.90;;;;;;;31.76;55.49;98721.44;4994961;28;20026;-64
2023/08/22 10:19:44;;;;;;;11.18;9.68;;;;;;;31.87;56.95;98712.25;4979241;28;20572;-64
2023/08/22 10:22:14;;;;;;;11.73;9.70;;;;;;;31.88;55.12;98719.19;4995414;28;20021;-65
2023/08/22 10:24:40;;;;;;;12.52;8.75;;;;;;;31.96;54.38;98715.91;4991118;28;20733;-63
2023/08/22 10:27:12;;;;;;;13.43;9.60;;;;;;;31.87;53.85;98714.09;4993287;28;20080;-65
2023/08/22 10:30:12;;;;;;;13.57;9.43;;;;;;;31.75;55.15;98709.91;4992356;28;20091;-65
2023/08/22 10:32:40;;;;;;;11.52;9.00;;;;;;;31.64;54.30;98702.22;4989849;28;20030;-65
2023/08/22 10:35:23;;;;;;;14.27;9.38;;;;;;;31.66;54.31;98700.06;4995219;28;20046;-64
2023/08/22 10:37:52;;;;;;;11.45;9.45;;;;;;;31.78;56.38;98703.16;4980876;28;20030;-65
2023/08/22 10:40:25;;;;;;;11.38;9.57;;;;;;;31.88;54.47;98676.19;4978188;28;20042;-64
2023/08/22 10:42:52;;;;;;;16.58;9.68;;;;;;;32.10;53.01;98702.63;4997974;28;20088;-64
2023/08/22 10:45:21;;;;;;;12.05;9.25;;;;;;;31.87;53.22;98679.97;4975780;28;20026;-65
2023/08/22 10:48:05;;;;;;;12.13;9.10;;;;;;;32.08;52.28;98695.94;4992997;28;20029;-64
2023/08/22 10:50:33;;;;;;;10.48;9.00;;;;;;;32.07;51.60;98683.56;4979301;28;20279;-64
2023/08/22 10:53:18;;;;;;;11.10;8.73;;;;;;;32.32;49.22;98675.22;4994274;28;20048;-64
2023/08/22 10:55:43;;;;;;;13.25;8.60;;;;;;;32.49;50.34;98682.03;5005939;28;20171;-65
2023/08/22 10:58:37;;;;;;;10.07;8.77;;;;;;;32.57;50.82;98678.72;4993153;28;20034;-65
2023/08/22 11:01:07;;;;;;;10.90;8.50;;;;;;;32.57;50.54;98676.81;4999138;28;20350;-64
2023/08/22 11:03:35;;;;;;;10.85;9.07;;;;;;;32.70;50.12;98663.78;4993862;28;20100;-65
2023/08/22 11:06:00;;;;;;;12.18;9.00;;;;;;;32.73;47.50;98665.88;4980568;28;20417;-64
2023/08/22 11:08:25;;;;;;;11.63;8.32;;;;;;;32.89;48.29;98656.50;4975862;28;20038;-66
2023/08/22 11:10:57;;;;;;;12.65;9.30;;;;;;;32.88;49.66;98656.81;4992833;28;20080;-64
2023/08/22 11:13:34;;;;;;;10.80;8.65;;;;;;;33.02;47.91;98654.19;4971838;28;20026;-66
2023/08/22 11:16:00;;;;;;;9.98;8.52;;;;;;;33.05;48.13;98656.31;4995278;28;20033;-65
2023/08/22 11:18:26;;;;;;;11.88;8.60;;;;;;;33.00;48.86;98659.06;4992575;28;20030;-65
2023/08/22 11:20:54;;;;;;;10.40;8.50;;;;;;;32.85;50.26;98655.50;4995516;28;20017;-64